Time;durP1;ratioP1;P1;durP2;ratioP2;P2;SDS_P1;SDS_P2;PMS_P1;PMS_P2;Temp;Humidity;BMP_temperature;BMP_pressure;BME280_temperature;BME280_humidity;BME280_pressure;Samples;Min_cycle;Max_cycle;Signal;HPM_P1;HPM_P2
2023/04/29 00:01:17;;;;;;;10.93;5.32;;;;;;;6.52;73.47;94690.31;5139115;27;20225;-73
2023/04/29 00:03:44;;;;;;;11.30;5.20;;;;;;;6.49;73.60;94689.00;5144931;27;20200;-72
2023/04/29 00:06:11;;;;;;;7.70;4.22;;;;;;;6.42;73.52;94689.41;5145889;27;20291;-72
2023/04/29 00:08:38;;;;;;;11.73;4.90;;;;;;;6.11;74.52;94693.00;5132729;27;20209;-73
2023/04/29 00:11:06;;;;;;;14.18;5.05;;;;;;;5.84;75.51;94682.97;5134319;27;20196;-73
2023/04/29 00:13:33;;;;;;;14.52;4.90;;;;;;;6.01;75.56;94704.75;5143786;27;20953;-73
2023/04/29 00:16:00;;;;;;;13.60;5.20;;;;;;;6.04;75.94;94694.16;5146214;27;20200;-73
2023/04/29 00:18:26;;;;;;;14.27;5.47;;;;;;;6.11;75.65;94704.53;5141019;27;20200;-73
2023/04/29 00:20:53;;;;;;;13.50;7.63;;;;;;;6.10;75.84;94702.94;5139136;27;20197;-73
2023/04/29 00:23:20;;;;;;;15.15;8.77;;;;;;;6.12;76.01;94699.97;5143524;27;20204;-73
2023/04/29 00:25:47;;;;;;;17.40;8.75;;;;;;;6.14;75.86;94697.78;5134439;27;20582;-73
2023/04/29 00:28:15;;;;;;;25.92;9.40;;;;;;;6.03;75.89;94697.16;5143672;27;20205;-73
2023/04/29 00:30:42;;;;;;;15.93;8.30;;;;;;;5.69;76.64;94714.38;5146269;27;20207;-73
2023/04/29 00:33:09;;;;;;;18.48;9.07;;;;;;;5.59;77.65;94717.25;5131567;27;20312;-73
2023/04/29 00:35:36;;;;;;;19.80;6.57;;;;;;;5.55;77.96;94708.16;5146225;27;20197;-73
2023/04/29 00:38:02;;;;;;;12.35;6.15;;;;;;;5.63;78.24;94710.19;5131872;27;20246;-73
2023/04/29 00:40:29;;;;;;;15.32;6.90;;;;;;;5.69;77.65;94709.00;5131591;27;20197;-72
2023/04/29 00:42:57;;;;;;;12.18;5.72;;;;;;;5.27;78.99;94711.84;5141871;27;20208;-73
2023/04/29 00:45:26;;;;;;;12.10;6.22;;;;;;;5.18;80.31;94714.41;5138624;27;20200;-72
2023/04/29 00:47:53;;;;;;;16.92;6.82;;;;;;;5.31;79.82;94704.81;5141554;27;20197;-72
2023/04/29 00:50:21;;;;;;;9.13;5.63;;;;;;;5.20;80.29;94711.41;5131502;27;20216;-72
2023/04/29 00:52:49;;;;;;;14.27;8.35;;;;;;;5.27;80.18;94698.41;5142625;27;20228;-72
2023/04/29 00:55:15;;;;;;;11.55;5.13;;;;;;;5.21;80.42;94697.69;5132147;27;20237;-72
2023/04/29 00:57:43;;;;;;;10.70;6.05;;;;;;;5.25;80.19;94689.84;5134029;27;20208;-72
2023/04/29 01:00:10;;;;;;;16.77;8.35;;;;;;;5.30;80.21;94684.41;5133310;27;20219;-71
2023/04/29 01:02:39;;;;;;;10.23;5.15;;;;;;;5.31;80.19;94680.63;5142835;27;20196;-72
2023/04/29 01:05:06;;;;;;;12.65;5.47;;;;;;;5.34;80.27;94675.47;5138467;27;20196;-73
2023/04/29 01:07:41;;;;;;;12.48;5.38;;;;;;;5.31;80.10;94670.69;5140716;27;20189;-73
2023/04/29 01:10:12;;;;;;;16.80;5.47;;;;;;;5.35;80.58;94671.69;5137888;27;20319;-72
2023/04/29 01:12:45;;;;;;;14.75;7.97;;;;;;;5.36;80.42;94667.09;5138551;27;20224;-73
2023/04/29 01:15:22;;;;;;;14.82;8.10;;;;;;;5.38;80.50;94670.31;5138808;27;20685;-72
2023/04/29 01:18:05;;;;;;;19.02;5.50;;;;;;;5.36;80.49;94667.91;5136514;27;20192;-72
2023/04/29 01:20:36;;;;;;;10.50;4.32;;;;;;;5.39;80.28;94661.16;5142446;27;20283;-73
2023/04/29 01:23:03;;;;;;;11.73;4.97;;;;;;;5.40;79.88;94652.00;5132854;27;20246;-72
2023/04/29 01:25:31;;;;;;;11.23;5.40;;;;;;;5.36;79.99;94656.38;5142601;27;20211;-73
2023/04/29 01:28:09;;;;;;;7.75;4.93;;;;;;;5.29;80.59;94664.00;5137115;27;20200;-73
2023/04/29 01:30:45;;;;;;;17.35;9.15;;;;;;;5.22;81.24;94656.31;5137817;27;20296;-73
2023/04/29 01:33:22;;;;;;;17.67;8.55;;;;;;;5.31;80.77;94667.22;5143083;27;20623;-72
2023/04/29 01:36:06;;;;;;;14.68;8.85;;;;;;;5.31;80.92;94667.22;5144426;27;20188;-73
2023/04/29 01:38:40;;;;;;;15.18;8.88;;;;;;;5.40;80.40;94673.50;5143779;27;20199;-72
2023/04/29 01:41:17;;;;;;;13.98;8.60;;;;;;;5.17;80.49;94674.41;5130566;27;20198;-72
2023/04/29 01:43:50;;;;;;;11.02;5.25;;;;;;;4.85;81.69;94665.22;5130353;27;20209;-73
2023/04/29 01:46:18;;;;;;;11.05;5.40;;;;;;;5.02;80.76;94661.22;5130799;27;20197;-73
2023/04/29 01:48:45;;;;;;;13.50;4.70;;;;;;;5.18;79.98;94666.06;5147246;27;20208;-73
2023/04/29 01:51:12;;;;;;;11.85;5.15;;;;;;;5.11;80.48;94659.47;5139812;27;20257;-73
2023/04/29 01:53:40;;;;;;;9.48;5.00;;;;;;;5.11;80.12;94659.47;5143976;27;20228;-73
2023/04/29 01:56:07;;;;;;;13.20;7.60;;;;;;;5.09;80.22;94661.63;5141787;27;20249;-72
2023/04/29 01:58:35;;;;;;;11.43;7.35;;;;;;;5.10;80.51;94655.19;5136995;27;20678;-74
2023/04/29 02:01:02;;;;;;;13.43;6.85;;;;;;;5.08;80.29;94660.84;5138722;27;20225;-72
2023/04/29 02:03:29;;;;;;;10.23;7.63;;;;;;;5.01;80.09;94665.78;5144407;27;20201;-72
2023/04/29 02:05:56;;;;;;;10.43;7.00;;;;;;;4.95;80.41;94658.88;5142294;27;20192;-72
2023/04/29 02:08:23;;;;;;;10.82;6.82;;;;;;;4.89;80.92;94666.22;5136731;27;20207;-73
2023/04/29 02:10:54;;;;;;;10.15;6.90;;;;;;;4.82;81.42;94659.63;5137686;27;20205;-73
2023/04/29 02:13:21;;;;;;;12.30;7.28;;;;;;;4.77;81.55;94665.88;5136841;27;20243;-72
2023/04/29 02:15:49;;;;;;;13.75;7.97;;;;;;;4.87;81.29;94668.41;5136578;27;20209;-72
2023/04/29 02:18:16;;;;;;;10.23;7.30;;;;;;;4.92;80.61;94668.31;5143288;27;20204;-72
2023/04/29 02:20:43;;;;;;;13.80;7.72;;;;;;;4.99;80.17;94668.75;5143762;27;20204;-72
2023/04/29 02:23:10;;;;;;;14.95;7.97;;;;;;;5.01;80.00;94665.78;5129938;27;20212;-72
2023/04/29 02:25:37;;;;;;;13.30;7.95;;;;;;;4.99;79.71;94666.06;5130362;27;20750;-72
2023/04/29 02:28:04;;;;;;;11.43;7.55;;;;;;;4.99;80.30;94660.72;5142575;27;20558;-72
2023/04/29 02:30:30;;;;;;;8.90;4.63;;;;;;;5.02;80.60;94666.59;5129361;27;20679;-73
2023/04/29 02:32:59;;;;;;;10.18;4.70;;;;;;;5.05;79.94;94666.00;5136554;27;20228;-73
2023/04/29 02:35:26;;;;;;;8.77;5.03;;;;;;;4.81;80.48;94666.88;5136459;27;20197;-72
2023/04/29 02:37:52;;;;;;;8.70;4.70;;;;;;;4.65;81.22;94662.81;5142536;27;20312;-72
2023/04/29 02:40:19;;;;;;;10.45;5.20;;;;;;;4.61;81.86;94661.81;5143391;27;20583;-73
2023/04/29 02:42:46;;;;;;;7.03;4.65;;;;;;;4.59;81.97;94662.09;5137175;27;20204;-73
2023/04/29 02:45:13;;;;;;;9.13;4.72;;;;;;;4.59;82.06;94658.59;5135977;27;20209;-72
2023/04/29 02:47:40;;;;;;;14.00;5.68;;;;;;;4.64;81.97;94662.03;5142328;27;20299;-72
2023/04/29 02:50:09;;;;;;;14.05;6.20;;;;;;;4.64;81.55;94656.66;5141593;27;20206;-72
2023/04/29 02:52:36;;;;;;;10.10;4.82;;;;;;;4.53;81.84;94665.09;5138284;27;20710;-72
2023/04/29 02:55:02;;;;;;;10.35;5.13;;;;;;;4.49;82.41;94664.91;5133113;27;20231;-72
2023/04/29 02:57:30;;;;;;;13.07;4.80;;;;;;;4.55;82.44;94665.63;5130029;27;20233;-73
2023/04/29 02:59:57;;;;;;;11.30;5.22;;;;;;;4.61;82.57;94672.53;5132956;27;20224;-74
2023/04/29 03:02:24;;;;;;;9.35;4.72;;;;;;;4.64;82.55;94688.06;5139500;27;20204;-73
2023/04/29 03:04:51;;;;;;;6.60;4.05;;;;;;;4.64;82.63;94688.06;5136401;27;20212;-72
2023/04/29 03:07:20;;;;;;;14.02;4.75;;;;;;;4.64;82.50;94682.69;5139619;27;20278;-73
2023/04/29 03:09:47;;;;;;;9.45;4.65;;;;;;;4.56;82.50;94686.00;5142827;27;20613;-72
2023/04/29 03:12:15;;;;;;;7.68;4.15;;;;;;;4.61;82.38;94683.25;5139301;27;20286;-72
2023/04/29 03:14:42;;;;;;;12.90;4.53;;;;;;;4.59;82.88;94680.88;5135557;27;20211;-72
2023/04/29 03:17:09;;;;;;;10.90;4.20;;;;;;;4.49;82.98;94680.19;5137800;27;20685;-72
2023/04/29 03:19:35;;;;;;;7.35;4.40;;;;;;;4.43;83.54;94686.69;5128603;27;20687;-73
2023/04/29 03:22:02;;;;;;;6.78;4.07;;;;;;;4.50;83.50;94679.13;5140395;27;20215;-72
2023/04/29 03:24:31;;;;;;;8.98;4.85;;;;;;;4.46;83.43;94691.50;5135467;27;20208;-72
2023/04/29 03:26:58;;;;;;;9.02;4.82;;;;;;;4.40;83.38;94687.28;5137987;27;20200;-72
2023/04/29 03:29:26;;;;;;;13.18;4.03;;;;;;;4.36;83.78;94694.31;5133859;27;20229;-72
2023/04/29 03:31:53;;;;;;;9.45;4.90;;;;;;;4.45;84.01;94704.13;5149907;27;20276;-73
2023/04/29 03:34:20;;;;;;;10.77;5.70;;;;;;;4.49;83.75;94693.63;5135647;27;20237;-72
2023/04/29 03:36:47;;;;;;;9.27;5.22;;;;;;;4.88;82.99;94707.56;5149486;27;20242;-72
2023/04/29 03:39:14;;;;;;;9.25;5.57;;;;;;;5.18;81.50;94714.41;5134857;27;20705;-72
2023/04/29 03:41:42;;;;;;;9.85;5.75;;;;;;;5.24;80.49;94715.09;5136461;27;20870;-73
2023/04/29 03:44:09;;;;;;;10.63;5.10;;;;;;;5.26;80.19;94705.66;5142286;27;20222;-72
2023/04/29 03:46:36;;;;;;;6.07;3.80;;;;;;;5.44;79.48;94717.50;5141791;27;20208;-73
2023/04/29 03:49:02;;;;;;;8.48;4.95;;;;;;;5.50;78.68;94721.69;5135524;27;20216;-71
2023/04/29 03:51:29;;;;;;;6.45;3.85;;;;;;;5.55;78.33;94702.81;5135370;27;20205;-72
2023/04/29 03:53:56;;;;;;;11.13;4.32;;;;;;;5.23;79.70;94710.81;5134824;27;20247;-72
2023/04/29 03:56:24;;;;;;;10.23;7.45;;;;;;;5.15;80.58;94703.44;5135179;27;20235;-72
2023/04/29 03:58:52;;;;;;;13.23;7.47;;;;;;;5.33;80.45;94706.09;5133751;27;20197;-72
2023/04/29 04:01:19;;;;;;;16.98;7.75;;;;;;;5.44;80.56;94701.38;5128237;27;20253;-72
2023/04/29 04:03:46;;;;;;;14.27;5.30;;;;;;;5.50;80.14;94710.94;5140987;27;20652;-73
2023/04/29 04:06:13;;;;;;;8.00;4.60;;;;;;;5.66;80.27;94703.41;5141613;27;20199;-73
2023/04/29 04:08:41;;;;;;;12.93;4.95;;;;;;;5.90;79.89;94708.69;5135615;27;20238;-72
2023/04/29 04:11:08;;;;;;;8.90;4.72;;;;;;;6.13;79.23;94699.66;5135171;27;20305;-73
2023/04/29 04:13:35;;;;;;;8.75;4.60;;;;;;;6.38;78.96;94709.94;5140870;27;20225;-71
2023/04/29 04:16:04;;;;;;;16.88;5.80;;;;;;;6.56;77.79;94710.16;5142771;27;20211;-73
2023/04/29 04:18:30;;;;;;;11.82;5.72;;;;;;;6.47;77.81;94707.34;5136755;27;20219;-73
2023/04/29 04:20:57;;;;;;;10.23;5.07;;;;;;;6.42;77.71;94710.16;5135351;27;20213;-73
2023/04/29 04:23:24;;;;;;;9.60;5.30;;;;;;;6.40;77.18;94704.25;5140477;27;20253;-73
2023/04/29 04:25:52;;;;;;;9.30;4.88;;;;;;;6.46;76.56;94696.88;5128017;28;20209;-72
2023/04/29 04:28:19;;;;;;;7.40;4.78;;;;;;;6.58;76.49;94707.94;5137019;27;20192;-72
2023/04/29 04:30:46;;;;;;;8.77;4.80;;;;;;;6.93;76.16;94699.13;5138899;27;20735;-72
2023/04/29 04:33:15;;;;;;;9.77;5.60;;;;;;;7.30;74.32;94697.22;5143772;27;20236;-72
2023/04/29 04:35:43;;;;;;;12.98;6.07;;;;;;;7.32;73.71;94686.94;5145760;27;20248;-72
2023/04/29 04:38:11;;;;;;;6.05;4.53;;;;;;;7.20;74.20;94702.84;5141477;27;20196;-72
2023/04/29 04:40:41;;;;;;;13.77;5.15;;;;;;;7.22;74.74;94701.44;5138630;27;20200;-73
2023/04/29 04:43:08;;;;;;;9.95;5.03;;;;;;;7.54;73.81;94703.09;5141922;27;20208;-73
2023/04/29 04:45:35;;;;;;;14.70;5.97;;;;;;;7.62;73.39;94699.69;5145731;27;20205;-73
2023/04/29 04:48:02;;;;;;;10.13;4.03;;;;;;;7.72;72.73;94698.63;5142754;27;20253;-71
2023/04/29 04:50:30;;;;;;;15.43;5.13;;;;;;;7.47;72.30;94703.53;5147099;27;20193;-71
2023/04/29 04:52:57;;;;;;;6.68;4.68;;;;;;;7.28;73.30;94718.28;5131654;27;20205;-71
2023/04/29 04:55:24;;;;;;;8.50;5.32;;;;;;;7.64;73.21;94708.28;5136077;27;20220;-74
2023/04/29 04:57:58;;;;;;;14.27;5.18;;;;;;;8.27;71.01;94709.09;5143338;27;20263;-73
2023/04/29 05:00:25;;;;;;;7.60;3.83;;;;;;;8.77;69.10;94696.09;5131551;27;20221;-72
2023/04/29 05:02:52;;;;;;;11.32;5.00;;;;;;;9.12;66.79;94692.38;5145133;27;20204;-73
2023/04/29 05:05:19;;;;;;;6.15;4.28;;;;;;;9.53;64.89;94680.28;5137975;27;20245;-72
2023/04/29 05:07:47;;;;;;;7.97;4.90;;;;;;;9.27;65.35;94683.81;5136958;27;20941;-73
2023/04/29 05:10:14;;;;;;;12.30;7.10;;;;;;;9.71;64.04;94676.44;5145276;27;20207;-73
2023/04/29 05:12:41;;;;;;;8.52;5.25;;;;;;;10.04;63.29;94673.19;5144770;27;20253;-75
2023/04/29 05:15:08;;;;;;;6.25;4.50;;;;;;;10.79;61.82;94666.25;5144367;27;20229;-73
2023/04/29 05:17:37;;;;;;;12.77;4.85;;;;;;;10.48;60.70;94669.25;5145226;27;20219;-75
2023/04/29 05:20:13;;;;;;;8.65;4.90;;;;;;;10.56;60.48;94663.78;5138926;27;20200;-73
2023/04/29 05:22:39;;;;;;;9.13;5.60;;;;;;;10.36;60.08;94658.31;5138217;27;20199;-73
2023/04/29 05:25:08;;;;;;;13.02;4.80;;;;;;;10.36;60.36;94648.28;5142530;27;20205;-72
2023/04/29 05:27:35;;;;;;;7.18;4.32;;;;;;;10.12;60.16;94654.22;5144690;27;20212;-72
2023/04/29 05:30:03;;;;;;;6.65;3.60;;;;;;;9.94;60.51;94660.81;5131246;27;20212;-73
2023/04/29 05:32:29;;;;;;;8.27;3.60;;;;;;;10.40;59.29;94654.63;5144391;27;20585;-71
2023/04/29 05:34:56;;;;;;;5.85;3.38;;;;;;;11.10;57.18;94644.97;5133461;27;20231;-75
2023/04/29 05:37:29;;;;;;;6.32;3.53;;;;;;;11.55;55.50;94647.00;5135077;27;20204;-73
2023/04/29 05:39:58;;;;;;;8.85;3.88;;;;;;;11.51;54.88;94637.94;5139598;27;20268;-73
2023/04/29 05:42:26;;;;;;;5.60;3.38;;;;;;;11.26;54.89;94648.69;5140342;27;20689;-73
2023/04/29 05:44:53;;;;;;;4.97;3.30;;;;;;;11.04;55.82;94643.59;5136046;27;20216;-74
2023/04/29 05:47:20;;;;;;;5.97;3.05;;;;;;;10.80;55.53;94629.88;5136798;27;20232;-74
2023/04/29 05:49:47;;;;;;;7.82;3.47;;;;;;;11.08;55.84;94639.06;5132919;27;20228;-72
2023/04/29 05:52:14;;;;;;;8.52;3.78;;;;;;;12.03;54.63;94639.03;5140611;27;20200;-72
2023/04/29 05:54:41;;;;;;;8.55;3.33;;;;;;;12.62;52.11;94646.03;5141792;27;20564;-72
2023/04/29 05:57:08;;;;;;;7.68;3.60;;;;;;;13.10;50.66;94642.50;5138522;27;20558;-72
2023/04/29 05:59:36;;;;;;;9.27;3.72;;;;;;;12.77;51.06;94646.13;5138768;27;20295;-74
2023/04/29 06:02:05;;;;;;;7.28;3.78;;;;;;;14.18;49.36;94647.88;5138908;27;20272;-74
2023/04/29 06:04:39;;;;;;;11.05;3.88;;;;;;;16.99;43.27;94632.72;5140130;27;20193;-76
2023/04/29 06:07:07;;;;;;;17.83;4.18;;;;;;;18.83;39.49;94623.19;5140755;27;20188;-72
2023/04/29 06:09:35;;;;;;;7.93;3.75;;;;;;;19.01;38.07;94624.09;5140583;27;20220;-74
2023/04/29 06:12:01;;;;;;;10.95;4.32;;;;;;;19.77;36.28;94609.66;5132894;27;20860;-74
2023/04/29 06:14:28;;;;;;;17.55;4.40;;;;;;;20.41;34.95;94607.91;5138088;27;20209;-72
2023/04/29 06:16:59;;;;;;;6.78;3.97;;;;;;;21.81;32.70;94601.88;5143243;27;20956;-73
2023/04/29 06:19:26;;;;;;;8.35;4.15;;;;;;;22.04;32.71;94597.88;5136197;27;20197;-73
2023/04/29 06:21:53;;;;;;;8.45;4.15;;;;;;;23.05;30.95;94600.38;5138648;27;20202;-76
2023/04/29 06:24:20;;;;;;;7.90;4.25;;;;;;;22.48;31.16;94600.78;5137482;27;20197;-72
2023/04/29 06:26:47;;;;;;;9.98;4.88;;;;;;;22.89;31.10;94600.91;5138714;27;20230;-73
2023/04/29 06:29:15;;;;;;;10.65;4.97;;;;;;;22.25;32.21;94608.81;5141390;27;20679;-75
2023/04/29 06:31:41;;;;;;;6.22;4.70;;;;;;;21.07;33.10;94610.28;5138207;27;20196;-74
2023/04/29 06:34:10;;;;;;;10.43;5.45;;;;;;;19.53;34.61;94616.63;5136606;27;20224;-73
2023/04/29 06:36:37;;;;;;;8.38;4.38;;;;;;;20.27;34.32;94607.84;5137767;27;20211;-73
2023/04/29 06:39:03;;;;;;;7.22;4.57;;;;;;;20.65;33.32;94613.81;5141558;27;20204;-73
2023/04/29 06:41:30;;;;;;;31.17;9.30;;;;;;;21.24;34.22;94602.03;5136885;27;20660;-73
2023/04/29 06:43:57;;;;;;;12.85;5.53;;;;;;;21.73;33.19;94599.56;5139161;27;20738;-74
2023/04/29 06:46:25;;;;;;;6.78;4.88;;;;;;;23.17;31.29;94605.41;5132294;27;20193;-73
2023/04/29 06:48:52;;;;;;;9.50;4.63;;;;;;;23.31;30.24;94591.47;5137587;27;20305;-74
2023/04/29 06:51:20;;;;;;;7.40;5.03;;;;;;;22.58;30.50;94605.44;5144338;27;20197;-74
2023/04/29 06:53:47;;;;;;;7.85;4.80;;;;;;;21.56;32.09;94601.19;5128449;27;20241;-74
2023/04/29 06:56:14;;;;;;;9.65;5.70;;;;;;;21.13;32.33;94606.75;5129077;27;20193;-73
2023/04/29 06:58:41;;;;;;;12.95;5.68;;;;;;;21.62;32.04;94605.09;5143501;27;20296;-73
2023/04/29 07:01:08;;;;;;;12.00;5.47;;;;;;;22.25;31.60;94603.31;5137125;27;20238;-74
2023/04/29 07:03:35;;;;;;;8.20;5.20;;;;;;;21.50;32.18;94600.81;5142704;27;20306;-74
2023/04/29 07:06:01;;;;;;;12.00;6.25;;;;;;;20.31;34.07;94603.16;5142170;27;20216;-73
2023/04/29 07:08:30;;;;;;;11.70;6.07;;;;;;;18.65;36.38;94611.25;5136016;27;20226;-73
2023/04/29 07:10:57;;;;;;;15.63;6.60;;;;;;;18.74;36.89;94607.03;5135618;27;20208;-71
2023/04/29 07:13:25;;;;;;;12.25;6.38;;;;;;;19.46;35.76;94589.06;5135897;27;20648;-74
2023/04/29 07:15:51;;;;;;;13.70;7.72;;;;;;;19.75;35.44;94590.78;5135605;27;20279;-74
2023/04/29 07:18:18;;;;;;;10.27;5.65;;;;;;;18.79;36.03;94590.22;5142166;27;20200;-73
2023/04/29 07:20:46;;;;;;;10.32;5.70;;;;;;;18.79;36.89;94600.41;5135402;27;20376;-73
2023/04/29 07:23:13;;;;;;;8.02;5.38;;;;;;;19.29;35.43;94606.22;5137117;27;20250;-73
2023/04/29 07:25:41;;;;;;;13.95;6.03;;;;;;;19.63;35.07;94593.09;5136505;27;20204;-74
2023/04/29 07:28:08;;;;;;;10.48;5.97;;;;;;;19.35;35.17;94593.72;5139567;27;20191;-74
2023/04/29 07:30:35;;;;;;;10.93;6.05;;;;;;;19.75;34.75;94596.28;5132267;27;20193;-73
2023/04/29 07:33:03;;;;;;;12.88;6.22;;;;;;;20.83;34.35;94598.09;5130452;27;20928;-75
2023/04/29 07:35:30;;;;;;;11.38;5.90;;;;;;;20.75;33.73;94596.53;5132561;27;20220;-76
2023/04/29 07:37:57;;;;;;;22.75;8.40;;;;;;;20.85;33.44;94595.75;5141148;27;20199;-72
2023/04/29 07:40:23;;;;;;;14.43;7.20;;;;;;;19.92;35.54;94588.50;5133970;27;20200;-72
2023/04/29 07:42:52;;;;;;;14.00;7.00;;;;;;;17.45;38.26;94600.53;5136307;27;20818;-75
2023/04/29 07:45:19;;;;;;;10.30;6.20;;;;;;;16.77;40.06;94609.72;5139859;27;20195;-72
2023/04/29 07:47:45;;;;;;;16.52;6.18;;;;;;;16.59;40.71;94605.88;5142621;27;20196;-74
2023/04/29 07:50:13;;;;;;;13.80;6.00;;;;;;;17.47;39.76;94598.22;5135407;27;20205;-74
2023/04/29 07:52:40;;;;;;;9.40;5.95;;;;;;;17.71;38.98;94596.97;5135242;27;20205;-74
2023/04/29 07:55:07;;;;;;;7.88;5.32;;;;;;;18.32;38.09;94590.94;5130982;27;20248;-75
2023/04/29 07:57:34;;;;;;;12.30;6.03;;;;;;;16.94;40.38;94597.47;5132372;27;20212;-72
2023/04/29 08:00:02;;;;;;;12.00;5.30;;;;;;;18.03;38.08;94583.63;5135467;27;20686;-74
2023/04/29 08:02:29;;;;;;;8.25;5.22;;;;;;;17.53;37.97;94588.47;5128007;27;20197;-75
2023/04/29 08:04:56;;;;;;;13.25;5.28;;;;;;;18.27;38.11;94574.84;5142050;27;20224;-75
2023/04/29 08:07:23;;;;;;;8.00;5.18;;;;;;;18.54;36.32;94585.66;5140017;27;20647;-74
2023/04/29 08:09:50;;;;;;;8.30;5.28;;;;;;;18.11;36.90;94579.78;5135019;27;20252;-74
2023/04/29 08:12:16;;;;;;;7.80;5.10;;;;;;;17.65;37.63;94587.47;5132663;27;20223;-75
2023/04/29 08:14:43;;;;;;;12.25;4.90;;;;;;;17.80;37.17;94580.22;5137220;27;20212;-74
2023/04/29 08:17:11;;;;;;;6.93;4.53;;;;;;;17.33;37.69;94576.13;5136746;27;20193;-71
2023/04/29 08:19:38;;;;;;;8.57;4.55;;;;;;;17.55;37.08;94577.94;5136039;27;20196;-72
2023/04/29 08:22:05;;;;;;;6.65;4.68;;;;;;;16.87;38.77;94576.25;5141170;27;20303;-72
2023/04/29 08:24:33;;;;;;;8.27;4.85;;;;;;;18.50;36.30;94571.13;5145921;27;20235;-73
2023/04/29 08:27:00;;;;;;;6.90;4.38;;;;;;;19.56;35.13;94560.88;5143260;27;20562;-73
2023/04/29 08:29:33;;;;;;;6.78;4.55;;;;;;;19.28;34.66;94556.00;5138365;27;20208;-74
2023/04/29 08:32:00;;;;;;;8.18;4.38;;;;;;;18.09;36.12;94573.88;5139537;27;20196;-73
2023/04/29 08:34:44;;;;;;;8.27;4.93;;;;;;;18.64;35.32;94571.28;5137125;27;20240;-74
2023/04/29 08:37:11;;;;;;;8.18;4.68;;;;;;;17.07;36.82;94579.69;5139246;27;20193;-74
2023/04/29 08:39:37;;;;;;;5.63;4.07;;;;;;;16.82;37.23;94579.28;5137835;27;20197;-74
2023/04/29 08:42:08;;;;;;;6.05;3.97;;;;;;;17.28;36.87;94576.44;5137552;27;20274;-75
2023/04/29 08:44:35;;;;;;;8.45;4.60;;;;;;;17.66;37.21;94578.88;5138198;27;20201;-75
2023/04/29 08:47:03;;;;;;;9.02;4.78;;;;;;;17.40;36.25;94576.19;5131695;27;20556;-76
2023/04/29 08:49:31;;;;;;;6.85;3.60;;;;;;;16.85;35.02;94570.34;5141743;27;20677;-73
2023/04/29 08:51:58;;;;;;;6.95;3.78;;;;;;;16.03;37.64;94562.75;5132569;27;20320;-74
2023/04/29 08:54:25;;;;;;;12.18;4.28;;;;;;;17.15;36.98;94558.66;5132488;27;20499;-74
2023/04/29 08:56:52;;;;;;;6.15;3.45;;;;;;;18.05;34.06;94562.09;5145630;27;20244;-73
2023/04/29 08:59:20;;;;;;;5.25;3.45;;;;;;;18.25;33.71;94557.97;5134167;27;20217;-75
2023/04/29 09:01:51;;;;;;;8.80;3.58;;;;;;;18.43;32.68;94550.72;5132609;27;20273;-74
2023/04/29 09:04:29;;;;;;;6.03;3.30;;;;;;;18.97;33.02;94540.94;5133378;27;20204;-74
2023/04/29 09:06:59;;;;;;;6.65;3.30;;;;;;;18.74;32.87;94537.63;5151280;27;20184;-74
2023/04/29 09:09:26;;;;;;;5.90;3.60;;;;;;;17.64;34.39;94542.84;5150328;27;20216;-74
2023/04/29 09:11:54;;;;;;;13.40;4.10;;;;;;;16.99;35.81;94540.47;5138467;27;20686;-74
2023/04/29 09:14:22;;;;;;;6.30;3.83;;;;;;;17.15;35.67;94548.50;5147981;27;20192;-75
2023/04/29 09:16:50;;;;;;;6.18;3.10;;;;;;;16.95;35.55;94536.09;5130124;27;20204;-75
2023/04/29 09:19:31;;;;;;;4.82;3.20;;;;;;;18.09;34.08;94546.47;5132177;27;20727;-75
2023/04/29 09:21:59;;;;;;;6.22;3.75;;;;;;;18.71;33.68;94522.72;5139017;27;20193;-75
2023/04/29 09:24:30;;;;;;;9.55;4.25;;;;;;;19.38;32.97;94527.03;5132038;27;20204;-74
2023/04/29 09:26:57;;;;;;;8.02;4.18;;;;;;;20.11;32.10;94524.91;5137396;27;20239;-75
2023/04/29 09:29:24;;;;;;;5.82;2.97;;;;;;;19.32;32.17;94523.06;5140319;27;20196;-75
2023/04/29 09:31:53;;;;;;;5.65;3.25;;;;;;;19.18;32.67;94513.59;5139126;27;20628;-74
2023/04/29 09:34:31;;;;;;;8.70;3.85;;;;;;;19.16;32.95;94513.16;5131218;27;20252;-74
2023/04/29 09:36:59;;;;;;;4.80;3.08;;;;;;;19.25;32.50;94512.06;5138796;27;20207;-74
2023/04/29 09:39:26;;;;;;;6.68;3.00;;;;;;;18.34;33.33;94516.50;5133571;27;20204;-75
2023/04/29 09:42:01;;;;;;;7.80;3.58;;;;;;;18.55;33.27;94507.69;5132651;27;20197;-75
2023/04/29 09:44:30;;;;;;;5.60;3.67;;;;;;;18.01;35.04;94518.22;5141565;27;20184;-75
2023/04/29 09:47:01;;;;;;;8.45;3.90;;;;;;;18.32;35.18;94511.41;5139159;27;20222;-76
2023/04/29 09:49:29;;;;;;;10.27;4.38;;;;;;;18.62;36.07;94502.25;5138126;27;20675;-76
2023/04/29 09:51:58;;;;;;;8.75;4.85;;;;;;;19.19;34.21;94495.16;5131963;27;20207;-75
2023/04/29 09:54:28;;;;;;;9.75;4.00;;;;;;;19.85;34.27;94493.81;5140570;27;20753;-73
2023/04/29 09:56:56;;;;;;;13.05;6.30;;;;;;;20.98;31.58;94492.25;5136497;27;20189;-75
2023/04/29 09:59:25;;;;;;;7.22;4.07;;;;;;;21.53;30.61;94477.94;5133107;27;20228;-75
2023/04/29 10:01:55;;;;;;;6.20;4.45;;;;;;;21.95;29.53;94476.91;5143798;27;20225;-73
2023/04/29 10:04:23;;;;;;;10.15;4.63;;;;;;;22.73;29.17;94467.25;5141925;27;20204;-76
2023/04/29 10:06:51;;;;;;;7.32;5.32;;;;;;;20.78;31.43;94469.09;5137176;27;20207;-76
2023/04/29 10:09:19;;;;;;;7.03;5.28;;;;;;;18.98;33.16;94482.09;5138045;27;20205;-77
2023/04/29 10:11:49;;;;;;;11.30;5.18;;;;;;;19.78;32.77;94469.06;5150263;27;20276;-74
2023/04/29 10:14:18;;;;;;;11.85;5.60;;;;;;;20.40;32.60;94466.00;5137050;27;20242;-73
2023/04/29 10:16:47;;;;;;;10.18;5.72;;;;;;;20.47;32.03;94459.72;5149898;27;20220;-74
2023/04/29 10:19:19;;;;;;;11.70;5.75;;;;;;;20.36;31.54;94454.22;5136210;27;20809;-73
2023/04/29 10:21:48;;;;;;;9.07;5.43;;;;;;;20.50;30.53;94456.94;5142058;27;20220;-74
2023/04/29 10:24:19;;;;;;;9.32;5.80;;;;;;;19.23;33.63;94459.47;5145887;27;20694;-76
2023/04/29 10:26:48;;;;;;;7.10;5.28;;;;;;;18.66;33.48;94459.19;5141282;27;20287;-73
2023/04/29 10:29:17;;;;;;;7.10;5.20;;;;;;;19.57;31.80;94455.28;5143727;27;20204;-73
2023/04/29 10:31:44;;;;;;;7.53;3.95;;;;;;;18.94;31.10;94453.84;5140283;27;20205;-76
2023/04/29 10:34:13;;;;;;;8.43;4.90;;;;;;;18.44;31.98;94458.22;5132700;27;20207;-74
2023/04/29 10:36:41;;;;;;;9.23;5.72;;;;;;;18.48;32.16;94448.84;5129614;27;20327;-75
2023/04/29 10:39:13;;;;;;;7.45;5.00;;;;;;;18.70;31.65;94454.50;5135063;27;20297;-73
2023/04/29 10:41:45;;;;;;;9.43;4.97;;;;;;;18.87;33.40;94459.28;5131534;27;20715;-74
2023/04/29 10:44:14;;;;;;;6.85;4.78;;;;;;;18.20;33.54;94454.13;5139664;27;20248;-74
2023/04/29 10:46:41;;;;;;;7.45;5.05;;;;;;;18.62;32.59;94458.34;5130162;27;20208;-75
2023/04/29 10:49:08;;;;;;;8.38;4.68;;;;;;;18.04;33.87;94461.84;5131574;27;20197;-75
2023/04/29 10:51:39;;;;;;;11.50;4.57;;;;;;;18.08;34.49;94457.16;5136515;27;20193;-74
2023/04/29 10:54:10;;;;;;;8.18;4.20;;;;;;;17.72;34.43;94462.34;5136790;27;20227;-74
2023/04/29 10:56:39;;;;;;;8.07;4.15;;;;;;;17.96;34.86;94460.19;5132955;27;20265;-76
2023/04/29 10:59:07;;;;;;;7.10;3.70;;;;;;;18.43;34.24;94457.44;5134824;27;20303;-75
2023/04/29 11:01:46;;;;;;;7.68;3.90;;;;;;;18.73;34.39;94448.22;5135953;27;20188;-75
2023/04/29 11:04:13;;;;;;;7.85;4.38;;;;;;;18.76;34.84;94444.72;5135470;27;20216;-75
2023/04/29 11:06:43;;;;;;;6.63;4.13;;;;;;;18.31;34.62;94444.00;5135834;27;20655;-76
2023/04/29 11:09:13;;;;;;;5.97;3.80;;;;;;;17.90;34.68;94453.50;5134974;27;20193;-74
2023/04/29 11:11:45;;;;;;;11.82;3.30;;;;;;;17.86;34.84;94455.41;5139750;27;20751;-77
2023/04/29 11:14:14;;;;;;;6.65;3.60;;;;;;;17.51;34.18;94442.09;5135536;27;20204;-75
2023/04/29 11:16:54;;;;;;;5.03;3.10;;;;;;;17.66;35.02;94454.81;5141335;27;20281;-73
2023/04/29 11:19:23;;;;;;;5.13;3.03;;;;;;;18.32;33.24;94440.09;5132876;27;20192;-76
2023/04/29 11:22:07;;;;;;;6.05;2.85;;;;;;;18.66;32.84;94440.75;5132558;27;20200;-75
2023/04/29 11:24:35;;;;;;;6.38;2.72;;;;;;;18.22;31.69;94445.50;5142585;27;20196;-74
2023/04/29 11:27:04;;;;;;;4.00;2.60;;;;;;;18.30;32.60;94439.72;5140518;27;20197;-75
2023/04/29 11:29:31;;;;;;;3.58;2.60;;;;;;;18.60;32.56;94444.22;5133959;27;20201;-75
2023/04/29 11:32:02;;;;;;;4.65;2.28;;;;;;;17.97;32.52;94450.81;5137639;27;20287;-75
2023/04/29 11:34:29;;;;;;;5.00;2.65;;;;;;;17.69;33.63;94456.81;5135309;27;20195;-75
2023/04/29 11:36:56;;;;;;;3.20;2.20;;;;;;;17.47;33.51;94453.06;5135693;27;20228;-74
2023/04/29 11:39:23;;;;;;;5.22;2.05;;;;;;;17.94;32.19;94446.06;5141195;27;20265;-75